sensor_id;sensor_type;location;lat;lon;timestamp;pressure;altitude;pressure_sealevel;temperature;humidity
70343;BME280;57767;42.068;24.752;2024-01-30T00:00:15;101023.28;;;1.28;55.59
70343;BME280;57767;42.068;24.752;2024-01-30T00:01:19;101023.09;;;1.31;55.44
70343;BME280;57767;42.068;24.752;2024-01-30T00:02:20;101031.47;;;1.36;55.18
70343;BME280;57767;42.068;24.752;2024-01-30T00:03:22;101024.78;;;1.32;54.82
70343;BME280;57767;42.068;24.752;2024-01-30T00:04:24;101015.38;;;1.29;55.05
70343;BME280;57767;42.068;24.752;2024-01-30T00:05:25;101026.19;;;1.37;55.19
70343;BME280;57767;42.068;24.752;2024-01-30T00:06:27;101019.75;;;1.29;55.37
70343;BME280;57767;42.068;24.752;2024-01-30T00:07:29;101032.75;;;1.29;55.36
70343;BME280;57767;42.068;24.752;2024-01-30T00:08:30;101025.63;;;1.32;54.93
70343;BME280;57767;42.068;24.752;2024-01-30T00:09:32;101029.63;;;1.38;54.99
70343;BME280;57767;42.068;24.752;2024-01-30T00:10:34;101018.38;;;1.37;55.17
70343;BME280;57767;42.068;24.752;2024-01-30T00:11:36;101026.59;;;1.44;55.17
70343;BME280;57767;42.068;24.752;2024-01-30T00:12:37;101016.19;;;1.44;55.09
70343;BME280;57767;42.068;24.752;2024-01-30T00:13:39;101026.34;;;1.49;55.00
70343;BME280;57767;42.068;24.752;2024-01-30T00:14:43;101025.03;;;1.41;55.45
70343;BME280;57767;42.068;24.752;2024-01-30T00:15:45;101035.81;;;1.50;55.49
70343;BME280;57767;42.068;24.752;2024-01-30T00:16:47;101019.63;;;1.44;55.63
70343;BME280;57767;42.068;24.752;2024-01-30T00:17:49;101026.94;;;1.52;55.42
70343;BME280;57767;42.068;24.752;2024-01-30T00:18:51;101021.97;;;1.49;55.59
70343;BME280;57767;42.068;24.752;2024-01-30T00:19:53;101029.03;;;1.47;55.69
70343;BME280;57767;42.068;24.752;2024-01-30T00:20:55;101028.47;;;1.42;55.81
70343;BME280;57767;42.068;24.752;2024-01-30T00:21:56;101025.03;;;1.41;55.78
70343;BME280;57767;42.068;24.752;2024-01-30T00:22:58;101022.34;;;1.43;56.16
70343;BME280;57767;42.068;24.752;2024-01-30T00:24:00;101025.97;;;1.40;56.19
70343;BME280;57767;42.068;24.752;2024-01-30T00:25:02;101028.78;;;1.37;55.93
70343;BME280;57767;42.068;24.752;2024-01-30T00:26:04;101029.88;;;1.33;55.96
70343;BME280;57767;42.068;24.752;2024-01-30T00:27:07;101030.72;;;1.34;56.22
70343;BME280;57767;42.068;24.752;2024-01-30T00:28:09;101025.72;;;1.31;56.23
70343;BME280;57767;42.068;24.752;2024-01-30T00:29:11;101029.81;;;1.35;56.41
70343;BME280;57767;42.068;24.752;2024-01-30T00:30:13;101040.13;;;1.36;56.34
70343;BME280;57767;42.068;24.752;2024-01-30T00:31:15;101039.28;;;1.36;56.81
70343;BME280;57767;42.068;24.752;2024-01-30T00:32:17;101038.13;;;1.40;56.33
70343;BME280;57767;42.068;24.752;2024-01-30T00:33:20;101031.28;;;1.39;56.20
70343;BME280;57767;42.068;24.752;2024-01-30T00:34:22;101027.94;;;1.37;56.79
70343;BME280;57767;42.068;24.752;2024-01-30T00:35:24;101035.00;;;1.35;56.74
70343;BME280;57767;42.068;24.752;2024-01-30T00:36:25;101036.59;;;1.37;57.05
70343;BME280;57767;42.068;24.752;2024-01-30T00:37:27;101020.22;;;1.35;57.35
70343;BME280;57767;42.068;24.752;2024-01-30T00:38:29;101028.88;;;1.36;57.22
70343;BME280;57767;42.068;24.752;2024-01-30T00:39:30;101033.88;;;1.39;57.25
70343;BME280;57767;42.068;24.752;2024-01-30T00:40:32;101031.28;;;1.39;57.07
70343;BME280;57767;42.068;24.752;2024-01-30T00:41:33;101032.00;;;1.41;56.89
70343;BME280;57767;42.068;24.752;2024-01-30T00:42:37;101031.28;;;1.39;56.50
70343;BME280;57767;42.068;24.752;2024-01-30T00:43:39;101033.75;;;1.40;56.41
70343;BME280;57767;42.068;24.752;2024-01-30T00:44:41;101037.03;;;1.44;56.02
70343;BME280;57767;42.068;24.752;2024-01-30T00:45:45;101031.81;;;1.44;56.17
70343;BME280;57767;42.068;24.752;2024-01-30T00:46:47;101040.38;;;1.46;56.70
70343;BME280;57767;42.068;24.752;2024-01-30T00:47:48;101037.75;;;1.46;56.65
70343;BME280;57767;42.068;24.752;2024-01-30T00:48:50;101038.50;;;1.48;56.83
70343;BME280;57767;42.068;24.752;2024-01-30T00:49:52;101035.16;;;1.46;56.45
70343;BME280;57767;42.068;24.752;2024-01-30T00:50:53;101035.53;;;1.40;56.47
70343;BME280;57767;42.068;24.752;2024-01-30T00:51:55;101049.28;;;1.42;56.86
70343;BME280;57767;42.068;24.752;2024-01-30T00:52:57;101031.91;;;1.42;56.58
70343;BME280;57767;42.068;24.752;2024-01-30T00:53:58;101050.13;;;1.42;56.38
70343;BME280;57767;42.068;24.752;2024-01-30T00:55:00;101045.00;;;1.41;56.75
70343;BME280;57767;42.068;24.752;2024-01-30T00:56:02;101036.13;;;1.31;57.11
70343;BME280;57767;42.068;24.752;2024-01-30T00:57:04;101041.31;;;1.31;57.20
70343;BME280;57767;42.068;24.752;2024-01-30T00:58:06;101040.66;;;1.27;57.07
70343;BME280;57767;42.068;24.752;2024-01-30T00:59:08;101039.81;;;1.27;57.27
70343;BME280;57767;42.068;24.752;2024-01-30T01:00:10;101030.16;;;1.29;57.57
70343;BME280;57767;42.068;24.752;2024-01-30T01:01:11;101039.47;;;1.33;57.31
70343;BME280;57767;42.068;24.752;2024-01-30T01:02:13;101030.91;;;1.31;56.67
70343;BME280;57767;42.068;24.752;2024-01-30T01:03:16;101030.91;;;1.31;56.90
70343;BME280;57767;42.068;24.752;2024-01-30T01:04:18;100996.94;;;1.05;56.97
70343;BME280;57767;42.068;24.752;2024-01-30T01:05:19;101031.09;;;1.28;56.94
70343;BME280;57767;42.068;24.752;2024-01-30T01:06:21;101023.13;;;1.17;57.06
70343;BME280;57767;42.068;24.752;2024-01-30T01:07:22;101025.63;;;1.18;57.06
70343;BME280;57767;42.068;24.752;2024-01-30T01:08:24;101018.94;;;1.14;57.33
70343;BME280;57767;42.068;24.752;2024-01-30T01:09:26;101018.84;;;1.16;57.14
70343;BME280;57767;42.068;24.752;2024-01-30T01:10:28;101026.47;;;1.19;57.17
70343;BME280;57767;42.068;24.752;2024-01-30T01:11:30;101028.31;;;1.17;57.51
70343;BME280;57767;42.068;24.752;2024-01-30T01:12:31;101027.31;;;1.19;57.17
70343;BME280;57767;42.068;24.752;2024-01-30T01:13:33;101017.72;;;1.20;56.98
70343;BME280;57767;42.068;24.752;2024-01-30T01:14:34;101022.50;;;1.13;57.12
70343;BME280;57767;42.068;24.752;2024-01-30T01:15:37;101012.28;;;1.10;57.21
70343;BME280;57767;42.068;24.752;2024-01-30T01:16:39;101028.31;;;1.17;57.60
70343;BME280;57767;42.068;24.752;2024-01-30T01:17:41;101023.34;;;1.14;57.02
70343;BME280;57767;42.068;24.752;2024-01-30T01:18:42;101014.78;;;1.12;56.98
70343;BME280;57767;42.068;24.752;2024-01-30T01:19:44;101016.63;;;1.10;57.21
70343;BME280;57767;42.068;24.752;2024-01-30T01:20:46;101025.09;;;1.13;57.22
70343;BME280;57767;42.068;24.752;2024-01-30T01:21:48;101020.00;;;1.12;57.65
70343;BME280;57767;42.068;24.752;2024-01-30T01:22:49;101023.22;;;1.15;57.26
70343;BME280;57767;42.068;24.752;2024-01-30T01:23:51;101014.78;;;1.12;57.28
70343;BME280;57767;42.068;24.752;2024-01-30T01:24:52;101008.44;;;1.01;57.59
70343;BME280;57767;42.068;24.752;2024-01-30T01:25:54;101014.41;;;1.03;57.67
70343;BME280;57767;42.068;24.752;2024-01-30T01:27:00;101000.47;;;0.90;57.81
70343;BME280;57767;42.068;24.752;2024-01-30T01:28:02;101017.56;;;0.94;58.25
70343;BME280;57767;42.068;24.752;2024-01-30T01:29:06;101011.63;;;0.78;58.19
70343;BME280;57767;42.068;24.752;2024-01-30T01:30:11;101005.50;;;0.79;58.54
70343;BME280;57767;42.068;24.752;2024-01-30T01:31:16;101004.56;;;0.80;58.77
70343;BME280;57767;42.068;24.752;2024-01-30T01:32:19;101007.16;;;0.66;58.34
70343;BME280;57767;42.068;24.752;2024-01-30T01:33:22;101007.25;;;0.64;59.31
70343;BME280;57767;42.068;24.752;2024-01-30T01:34:24;101009.84;;;0.64;59.15
70343;BME280;57767;42.068;24.752;2024-01-30T01:35:31;100997.16;;;0.60;59.93
70343;BME280;57767;42.068;24.752;2024-01-30T01:36:32;101001.59;;;0.58;59.62
70343;BME280;57767;42.068;24.752;2024-01-30T01:37:34;101017.22;;;0.72;59.16
70343;BME280;57767;42.068;24.752;2024-01-30T01:38:35;101004.38;;;0.69;59.50
70343;BME280;57767;42.068;24.752;2024-01-30T01:39:37;101012.56;;;0.63;59.30
70343;BME280;57767;42.068;24.752;2024-01-30T01:40:39;101014.03;;;0.53;59.99
70343;BME280;57767;42.068;24.752;2024-01-30T01:41:41;101014.78;;;0.55;60.08
70343;BME280;57767;42.068;24.752;2024-01-30T01:42:43;101016.09;;;0.62;59.96
70343;BME280;57767;42.068;24.752;2024-01-30T01:43:45;101010.97;;;0.60;60.02
70343;BME280;57767;42.068;24.752;2024-01-30T01:44:47;101002.16;;;0.63;60.04
70343;BME280;57767;42.068;24.752;2024-01-30T01:45:48;101004.19;;;0.58;59.85
70343;BME280;57767;42.068;24.752;2024-01-30T01:46:51;100975.59;;;0.44;59.80
70343;BME280;57767;42.068;24.752;2024-01-30T01:47:53;100989.78;;;0.52;60.02
70343;BME280;57767;42.068;24.752;2024-01-30T01:48:56;101003.53;;;0.54;59.93
70343;BME280;57767;42.068;24.752;2024-01-30T01:49:58;101001.78;;;0.55;60.22
70343;BME280;57767;42.068;24.752;2024-01-30T01:51:00;100999.09;;;0.56;60.46
70343;BME280;57767;42.068;24.752;2024-01-30T01:52:02;101007.91;;;0.68;60.19
70343;BME280;57767;42.068;24.752;2024-01-30T01:53:07;100998.44;;;0.67;60.09
70343;BME280;57767;42.068;24.752;2024-01-30T01:54:09;100982.00;;;0.66;59.98
70343;BME280;57767;42.068;24.752;2024-01-30T01:55:11;100993.72;;;0.74;59.51
70343;BME280;57767;42.068;24.752;2024-01-30T01:56:14;100993.72;;;0.74;59.29
70343;BME280;57767;42.068;24.752;2024-01-30T01:57:16;100999.75;;;0.74;59.04
70343;BME280;57767;42.068;24.752;2024-01-30T01:58:19;101005.41;;;0.81;58.86
70343;BME280;57767;42.068;24.752;2024-01-30T01:59:22;100982.56;;;0.71;59.11
70343;BME280;57767;42.068;24.752;2024-01-30T02:00:24;100993.31;;;0.80;59.76
70343;BME280;57767;42.068;24.752;2024-01-30T02:01:27;100999.19;;;0.83;59.73
70343;BME280;57767;42.068;24.752;2024-01-30T02:02:30;101010.16;;;0.88;59.35
70343;BME280;57767;42.068;24.752;2024-01-30T02:03:32;100996.41;;;0.86;59.64
70343;BME280;57767;42.068;24.752;2024-01-30T02:04:35;101002.53;;;0.85;59.29
70343;BME280;57767;42.068;24.752;2024-01-30T02:05:37;100994.56;;;0.88;58.64
70343;BME280;57767;42.068;24.752;2024-01-30T02:06:39;101001.97;;;0.94;58.65
70343;BME280;57767;42.068;24.752;2024-01-30T02:07:41;100999.38;;;0.94;58.53
70343;BME280;57767;42.068;24.752;2024-01-30T02:08:43;100993.41;;;0.92;58.35
70343;BME280;57767;42.068;24.752;2024-01-30T02:09:45;100995.75;;;0.97;58.11
70343;BME280;57767;42.068;24.752;2024-01-30T02:10:46;100983.31;;;0.88;58.37
70343;BME280;57767;42.068;24.752;2024-01-30T02:11:48;101003.25;;;1.01;58.34
70343;BME280;57767;42.068;24.752;2024-01-30T02:12:50;101005.22;;;0.98;58.39
70343;BME280;57767;42.068;24.752;2024-01-30T02:13:52;101003.47;;;0.98;58.09
70343;BME280;57767;42.068;24.752;2024-01-30T02:14:53;101004.56;;;0.94;58.66
70343;BME280;57767;42.068;24.752;2024-01-30T02:15:56;101009.19;;;0.89;58.39
70343;BME280;57767;42.068;24.752;2024-01-30T02:16:59;101011.72;;;0.91;58.26
70343;BME280;57767;42.068;24.752;2024-01-30T02:18:00;101002.16;;;0.91;58.21
70343;BME280;57767;42.068;24.752;2024-01-30T02:19:02;101006.59;;;0.89;58.42
70343;BME280;57767;42.068;24.752;2024-01-30T02:20:04;101002.44;;;0.87;58.50
70343;BME280;57767;42.068;24.752;2024-01-30T02:21:07;101005.06;;;0.87;58.34
70343;BME280;57767;42.068;24.752;2024-01-30T02:22:09;101001.59;;;0.86;58.82
70343;BME280;57767;42.068;24.752;2024-01-30T02:23:12;101010.88;;;0.90;59.25
70343;BME280;57767;42.068;24.752;2024-01-30T02:24:13;100969.84;;;0.67;58.83
70343;BME280;57767;42.068;24.752;2024-01-30T02:25:15;101001.53;;;0.88;59.09
70343;BME280;57767;42.068;24.752;2024-01-30T02:26:17;100997.34;;;0.85;59.25
70343;BME280;57767;42.068;24.752;2024-01-30T02:27:18;101005.69;;;0.90;58.98
70343;BME280;57767;42.068;24.752;2024-01-30T02:28:20;101001.03;;;0.81;59.13
70343;BME280;57767;42.068;24.752;2024-01-30T02:29:22;101013.97;;;0.83;58.84
70343;BME280;57767;42.068;24.752;2024-01-30T02:30:23;100999.66;;;0.76;58.93
70343;BME280;57767;42.068;24.752;2024-01-30T02:31:25;101014.03;;;0.81;59.19
70343;BME280;57767;42.068;24.752;2024-01-30T02:32:27;101011.44;;;0.81;59.30
70343;BME280;57767;42.068;24.752;2024-01-30T02:33:29;101004.97;;;0.74;58.86
70343;BME280;57767;42.068;24.752;2024-01-30T02:34:30;101015.97;;;0.78;58.46
70343;BME280;57767;42.068;24.752;2024-01-30T02:35:32;101018.50;;;0.79;58.77
70343;BME280;57767;42.068;24.752;2024-01-30T02:36:34;101014.31;;;0.77;58.72
70343;BME280;57767;42.068;24.752;2024-01-30T02:37:36;101017.66;;;0.79;58.58
70343;BME280;57767;42.068;24.752;2024-01-30T02:38:38;101011.84;;;0.75;59.02
70343;BME280;57767;42.068;24.752;2024-01-30T02:39:39;101019.72;;;0.74;59.25
70343;BME280;57767;42.068;24.752;2024-01-30T02:40:41;101017.22;;;0.72;59.21
70343;BME280;57767;42.068;24.752;2024-01-30T02:41:42;101029.19;;;0.75;58.75
70343;BME280;57767;42.068;24.752;2024-01-30T02:42:44;101019.97;;;0.69;59.49
70343;BME280;57767;42.068;24.752;2024-01-30T02:43:45;101021.84;;;0.67;59.27
70343;BME280;57767;42.068;24.752;2024-01-30T02:44:48;101020.44;;;0.61;59.36
70343;BME280;57767;42.068;24.752;2024-01-30T02:45:50;101007.34;;;0.49;60.10
70343;BME280;57767;42.068;24.752;2024-01-30T02:46:51;101010.03;;;0.47;60.02
70343;BME280;57767;42.068;24.752;2024-01-30T02:47:55;101003.59;;;0.39;60.46
70343;BME280;57767;42.068;24.752;2024-01-30T02:49:00;101001.28;;;0.34;60.40
70343;BME280;57767;42.068;24.752;2024-01-30T02:50:02;101034.25;;;0.48;60.69
70343;BME280;57767;42.068;24.752;2024-01-30T02:51:04;101025.88;;;0.43;60.59
70343;BME280;57767;42.068;24.752;2024-01-30T02:52:05;101028.66;;;0.40;60.86
70343;BME280;57767;42.068;24.752;2024-01-30T02:53:07;101025.78;;;0.30;61.01
70343;BME280;57767;42.068;24.752;2024-01-30T02:54:09;101024.75;;;0.32;60.86
70343;BME280;57767;42.068;24.752;2024-01-30T02:55:11;101009.50;;;0.26;61.17
70343;BME280;57767;42.068;24.752;2024-01-30T02:56:13;101013.03;;;0.25;61.36
70343;BME280;57767;42.068;24.752;2024-01-30T02:57:15;101022.63;;;0.25;61.13
70343;BME280;57767;42.068;24.752;2024-01-30T02:58:17;101012.75;;;0.16;61.56
70343;BME280;57767;42.068;24.752;2024-01-30T02:59:18;101010.22;;;0.14;61.36
70343;BME280;57767;42.068;24.752;2024-01-30T03:00:20;101013.59;;;0.16;61.61
70343;BME280;57767;42.068;24.752;2024-01-30T03:01:21;101025.84;;;0.28;61.33
70343;BME280;57767;42.068;24.752;2024-01-30T03:02:24;101021.78;;;0.24;61.51
70343;BME280;57767;42.068;24.752;2024-01-30T03:03:26;101021.78;;;0.24;61.58
70343;BME280;57767;42.068;24.752;2024-01-30T03:04:27;101024.38;;;0.24;61.83
70343;BME280;57767;42.068;24.752;2024-01-30T03:05:31;101037.00;;;0.30;61.90
70343;BME280;57767;42.068;24.752;2024-01-30T03:06:33;101036.91;;;0.32;61.94
70343;BME280;57767;42.068;24.752;2024-01-30T03:07:34;101026.78;;;0.27;62.32
70343;BME280;57767;42.068;24.752;2024-01-30T03:08:36;101030.03;;;0.31;62.21
70343;BME280;57767;42.068;24.752;2024-01-30T03:09:41;101041.03;;;0.36;62.79
70343;BME280;57767;42.068;24.752;2024-01-30T03:10:43;101015.34;;;0.16;62.41
70343;BME280;57767;42.068;24.752;2024-01-30T03:11:45;101041.25;;;0.17;62.78
70343;BME280;57767;42.068;24.752;2024-01-30T03:12:46;101026.19;;;0.08;62.97
70343;BME280;57767;42.068;24.752;2024-01-30T03:13:48;101027.94;;;0.08;63.04
70343;BME280;57767;42.068;24.752;2024-01-30T03:14:50;101037.13;;;0.13;62.88
70343;BME280;57767;42.068;24.752;2024-01-30T03:15:51;101045.16;;;0.24;63.13
70343;BME280;57767;42.068;24.752;2024-01-30T03:16:53;101029.34;;;0.13;63.27
70343;BME280;57767;42.068;24.752;2024-01-30T03:17:54;101040.31;;;0.18;62.81
70343;BME280;57767;42.068;24.752;2024-01-30T03:18:56;101041.25;;;0.17;63.49
70343;BME280;57767;42.068;24.752;2024-01-30T03:19:58;101046.09;;;0.23;63.51
70343;BME280;57767;42.068;24.752;2024-01-30T03:21:00;101043.41;;;0.25;63.46
70343;BME280;57767;42.068;24.752;2024-01-30T03:22:02;101047.41;;;0.30;63.05
70343;BME280;57767;42.068;24.752;2024-01-30T03:23:04;101049.06;;;0.31;63.46
70343;BME280;57767;42.068;24.752;2024-01-30T03:24:06;101048.16;;;0.32;63.61
70343;BME280;57767;42.068;24.752;2024-01-30T03:25:07;101043.03;;;0.31;63.35
70343;BME280;57767;42.068;24.752;2024-01-30T03:26:09;101042.38;;;0.27;63.76
70343;BME280;57767;42.068;24.752;2024-01-30T03:27:12;101030.50;;;0.23;63.80
70343;BME280;57767;42.068;24.752;2024-01-30T03:28:13;101034.56;;;0.27;63.22
70343;BME280;57767;42.068;24.752;2024-01-30T03:29:15;101031.72;;;0.32;63.49
70343;BME280;57767;42.068;24.752;2024-01-30T03:30:17;101041.94;;;0.35;63.37
70343;BME280;57767;42.068;24.752;2024-01-30T03:31:19;101037.00;;;0.30;63.72
70343;BME280;57767;42.068;24.752;2024-01-30T03:32:20;101032.66;;;0.31;63.75
70343;BME280;57767;42.068;24.752;2024-01-30T03:33:22;101028.47;;;0.28;63.98
70343;BME280;57767;42.068;24.752;2024-01-30T03:34:24;101026.22;;;0.22;63.52
70343;BME280;57767;42.068;24.752;2024-01-30T03:35:26;101035.50;;;0.26;63.76
70343;BME280;57767;42.068;24.752;2024-01-30T03:36:27;101043.88;;;0.31;63.58
70343;BME280;57767;42.068;24.752;2024-01-30T03:37:29;101029.59;;;0.24;63.89
70343;BME280;57767;42.068;24.752;2024-01-30T03:38:31;101024.28;;;0.26;64.09
70343;BME280;57767;42.068;24.752;2024-01-30T03:39:34;101033.47;;;0.31;64.01
70343;BME280;57767;42.068;24.752;2024-01-30T03:40:35;101042.56;;;0.39;63.79
70343;BME280;57767;42.068;24.752;2024-01-30T03:41:37;101039.06;;;0.40;64.25
70343;BME280;57767;42.068;24.752;2024-01-30T03:42:39;101042.50;;;0.40;64.00
70343;BME280;57767;42.068;24.752;2024-01-30T03:43:40;101044.00;;;0.44;64.23
70343;BME280;57767;42.068;24.752;2024-01-30T03:44:42;101040.72;;;0.41;64.29
70343;BME280;57767;42.068;24.752;2024-01-30T03:45:44;101042.22;;;0.45;64.50
70343;BME280;57767;42.068;24.752;2024-01-30T03:46:45;101034.44;;;0.45;63.94
70343;BME280;57767;42.068;24.752;2024-01-30T03:47:47;101036.13;;;0.46;64.07
70343;BME280;57767;42.068;24.752;2024-01-30T03:48:49;101035.44;;;0.42;64.14
70343;BME280;57767;42.068;24.752;2024-01-30T03:49:50;101032.19;;;0.39;64.29
70343;BME280;57767;42.068;24.752;2024-01-30T03:50:52;101032.84;;;0.42;64.25
70343;BME280;57767;42.068;24.752;2024-01-30T03:51:54;101030.84;;;0.47;63.85
70343;BME280;57767;42.068;24.752;2024-01-30T03:52:55;101033.69;;;0.43;64.03
70343;BME280;57767;42.068;24.752;2024-01-30T03:53:57;101016.22;;;0.30;63.76
70343;BME280;57767;42.068;24.752;2024-01-30T03:54:58;101038.22;;;0.39;64.07
70343;BME280;57767;42.068;24.752;2024-01-30T03:56:00;101036.53;;;0.38;63.62
70343;BME280;57767;42.068;24.752;2024-01-30T03:57:02;101036.84;;;0.33;64.07
70343;BME280;57767;42.068;24.752;2024-01-30T03:58:04;101034.03;;;0.22;64.32
70343;BME280;57767;42.068;24.752;2024-01-30T03:59:05;101036.25;;;0.28;64.50
70343;BME280;57767;42.068;24.752;2024-01-30T04:00:07;101029.75;;;0.21;64.53
70343;BME280;57767;42.068;24.752;2024-01-30T04:01:13;101035.78;;;0.22;65.14
70343;BME280;57767;42.068;24.752;2024-01-30T04:02:16;101027.81;;;0.25;64.62
70343;BME280;57767;42.068;24.752;2024-01-30T04:03:19;101035.50;;;0.26;64.23
70343;BME280;57767;42.068;24.752;2024-01-30T04:04:21;101033.28;;;0.20;64.32
70343;BME280;57767;42.068;24.752;2024-01-30T04:05:23;101027.31;;;0.18;64.93
70343;BME280;57767;42.068;24.752;2024-01-30T04:06:24;101019.16;;;0.10;64.82
70343;BME280;57767;42.068;24.752;2024-01-30T04:07:26;101028.16;;;0.19;64.89
70343;BME280;57767;42.068;24.752;2024-01-30T04:08:27;101034.19;;;0.19;64.92
70343;BME280;57767;42.068;24.752;2024-01-30T04:09:29;101032.34;;;0.21;64.95
70343;BME280;57767;42.068;24.752;2024-01-30T04:10:31;101027.16;;;0.21;64.88
70343;BME280;57767;42.068;24.752;2024-01-30T04:11:32;101023.81;;;0.19;64.37
70343;BME280;57767;42.068;24.752;2024-01-30T04:12:34;101029.84;;;0.20;64.68
70343;BME280;57767;42.068;24.752;2024-01-30T04:13:35;101033.44;;;0.17;64.46
70343;BME280;57767;42.068;24.752;2024-01-30T04:14:38;101042.06;;;0.18;64.85
70343;BME280;57767;42.068;24.752;2024-01-30T04:15:40;101031.22;;;0.11;64.95
70343;BME280;57767;42.068;24.752;2024-01-30T04:16:42;101035.50;;;0.12;65.28
70343;BME280;57767;42.068;24.752;2024-01-30T04:17:44;101036.22;;;0.14;65.32
70343;BME280;57767;42.068;24.752;2024-01-30T04:18:45;101032.13;;;0.10;65.59
70343;BME280;57767;42.068;24.752;2024-01-30T04:19:47;101041.41;;;0.14;65.20
70343;BME280;57767;42.068;24.752;2024-01-30T04:20:49;101031.09;;;0.13;65.26
70343;BME280;57767;42.068;24.752;2024-01-30T04:21:51;101032.88;;;0.12;65.36
70343;BME280;57767;42.068;24.752;2024-01-30T04:22:52;101036.41;;;0.11;65.29
70343;BME280;57767;42.068;24.752;2024-01-30T04:23:54;101037.13;;;0.13;64.78
70343;BME280;57767;42.068;24.752;2024-01-30T04:24:56;101037.03;;;0.15;64.83
70343;BME280;57767;42.068;24.752;2024-01-30T04:25:57;101033.69;;;0.13;64.84
70343;BME280;57767;42.068;24.752;2024-01-30T04:26:59;101044.28;;;0.10;65.42
70343;BME280;57767;42.068;24.752;2024-01-30T04:28:00;101022.16;;;0.03;65.18
70343;BME280;57767;42.068;24.752;2024-01-30T04:29:02;101015.41;;;0.00;65.33
70343;BME280;57767;42.068;24.752;2024-01-30T04:30:04;101024.50;;;0.07;65.41
70343;BME280;57767;42.068;24.752;2024-01-30T04:31:06;101026.09;;;0.10;65.12
70343;BME280;57767;42.068;24.752;2024-01-30T04:32:09;101022.38;;;-0.01;65.37
70343;BME280;57767;42.068;24.752;2024-01-30T04:33:10;101013.31;;;-0.09;65.24
70343;BME280;57767;42.068;24.752;2024-01-30T04:34:13;101032.38;;;0.06;65.37
70343;BME280;57767;42.068;24.752;2024-01-30T04:35:14;101020.16;;;0.08;65.10
70343;BME280;57767;42.068;24.752;2024-01-30T04:36:16;101028.63;;;0.11;64.82
70343;BME280;57767;42.068;24.752;2024-01-30T04:37:18;101025.91;;;0.13;64.81
70343;BME280;57767;42.068;24.752;2024-01-30T04:38:20;101027.78;;;0.11;65.27
70343;BME280;57767;42.068;24.752;2024-01-30T04:39:21;101031.09;;;0.13;65.08
70343;BME280;57767;42.068;24.752;2024-01-30T04:40:23;101013.44;;;0.04;64.94
70343;BME280;57767;42.068;24.752;2024-01-30T04:41:25;101018.56;;;0.05;64.90
70343;BME280;57767;42.068;24.752;2024-01-30T04:42:27;101041.25;;;0.17;65.13
70343;BME280;57767;42.068;24.752;2024-01-30T04:43:29;101017.91;;;0.02;64.80
70343;BME280;57767;42.068;24.752;2024-01-30T04:44:31;101007.72;;;-0.02;65.06
70343;BME280;57767;42.068;24.752;2024-01-30T04:45:33;101026.84;;;0.12;64.82
70343;BME280;57767;42.068;24.752;2024-01-30T04:46:35;101017.72;;;0.05;64.32
70343;BME280;57767;42.068;24.752;2024-01-30T04:47:36;101038.38;;;0.22;64.45
70343;BME280;57767;42.068;24.752;2024-01-30T04:48:38;101028.41;;;0.14;64.73
70343;BME280;57767;42.068;24.752;2024-01-30T04:49:40;101042.25;;;0.15;64.83
70343;BME280;57767;42.068;24.752;2024-01-30T04:50:41;101047.44;;;0.15;64.88
70343;BME280;57767;42.068;24.752;2024-01-30T04:51:43;101046.34;;;0.19;64.82
70343;BME280;57767;42.068;24.752;2024-01-30T04:52:45;101046.59;;;0.14;64.72
70343;BME280;57767;42.068;24.752;2024-01-30T04:53:46;101048.03;;;0.20;64.86
70343;BME280;57767;42.068;24.752;2024-01-30T04:54:48;101053.88;;;0.23;64.57
70343;BME280;57767;42.068;24.752;2024-01-30T04:55:49;101047.00;;;0.22;64.26
70343;BME280;57767;42.068;24.752;2024-01-30T04:56:51;101015.97;;;0.05;64.13
70343;BME280;57767;42.068;24.752;2024-01-30T04:57:53;101051.50;;;0.34;64.19
70343;BME280;57767;42.068;24.752;2024-01-30T04:58:54;101040.34;;;0.32;63.94
70343;BME280;57767;42.068;24.752;2024-01-30T04:59:56;101039.78;;;0.27;64.52
70343;BME280;57767;42.068;24.752;2024-01-30T05:00:58;101033.81;;;0.25;64.23
70343;BME280;57767;42.068;24.752;2024-01-30T05:02:00;101054.00;;;0.36;64.41
70343;BME280;57767;42.068;24.752;2024-01-30T05:03:01;101060.22;;;0.33;64.54
70343;BME280;57767;42.068;24.752;2024-01-30T05:04:03;101059.47;;;0.31;64.46
70343;BME280;57767;42.068;24.752;2024-01-30T05:05:05;101044.81;;;0.30;64.16
70343;BME280;57767;42.068;24.752;2024-01-30T05:06:07;101054.28;;;0.31;64.13
70343;BME280;57767;42.068;24.752;2024-01-30T05:07:09;101032.34;;;0.21;64.44
70343;BME280;57767;42.068;24.752;2024-01-30T05:08:10;101051.59;;;0.33;64.49
70343;BME280;57767;42.068;24.752;2024-01-30T05:09:12;101041.53;;;0.27;64.54
70343;BME280;57767;42.068;24.752;2024-01-30T05:10:14;101059.94;;;0.38;64.14
70343;BME280;57767;42.068;24.752;2024-01-30T05:11:15;101051.72;;;0.46;64.37
70343;BME280;57767;42.068;24.752;2024-01-30T05:12:17;101047.91;;;0.37;63.93
70343;BME280;57767;42.068;24.752;2024-01-30T05:13:18;101049.94;;;0.46;63.93
70343;BME280;57767;42.068;24.752;2024-01-30T05:14:20;101067.97;;;0.49;64.31
70343;BME280;57767;42.068;24.752;2024-01-30T05:15:22;101059.97;;;0.52;63.40
70343;BME280;57767;42.068;24.752;2024-01-30T05:16:23;101059.41;;;0.47;63.82
70343;BME280;57767;42.068;24.752;2024-01-30T05:17:25;101061.19;;;0.47;63.78
70343;BME280;57767;42.068;24.752;2024-01-30T05:18:26;101054.31;;;0.46;63.69
70343;BME280;57767;42.068;24.752;2024-01-30T05:19:28;101055.97;;;0.47;63.89
70343;BME280;57767;42.068;24.752;2024-01-30T05:20:30;101056.72;;;0.49;63.86
70343;BME280;57767;42.068;24.752;2024-01-30T05:21:32;101055.81;;;0.50;64.00
70343;BME280;57767;42.068;24.752;2024-01-30T05:22:33;101058.41;;;0.50;63.53
70343;BME280;57767;42.068;24.752;2024-01-30T05:23:35;101057.56;;;0.49;64.24